Data for 05/07/2016

Time Sea-Level Adjusted Pressure Absolute Pressure Temperature Relative Humidity Dew Point   
(mb) (inHg) (mb) (inHg) (C) (F) (%) (C) (F)
00:05 1021 30.15 850 25.1 9.2 48.5 73 4.7 40.4
00:10 1021 30.15 850 25.1 9.1 48.3 74 4.7 40.4
00:15 1021 30.15 850 25.1 9 48.1 74 4.5 40.2
00:20 1021 30.15 850 25.1 9 48.1 74 4.5 40.1
00:25 1021 30.15 850 25.1 8.9 47.9 74 4.5 40.1
00:30 1021 30.15 850 25.1 8.9 47.9 74 4.4 39.9
00:35 1021 30.15 850 25.1 8.8 47.9 74 4.4 39.9
00:40 1021 30.15 850 25.1 8.8 47.9 73 4.3 39.7
00:45 1021 30.15 850 25.1 8.8 47.9 73 4.2 39.6
00:50 1021 30.15 850 25.1 8.8 47.9 72 4.2 39.5
00:55 1021 30.15 850 25.1 8.9 47.9 73 4.2 39.6
01:00 1021 30.15 850 25.1 8.8 47.9 72 4.1 39.4
01:05 1020 30.12 850 25.1 8.8 47.8 72 4 39.3
01:10 1020 30.12 850 25.1 8.9 47.9 71 4 39.1
01:15 1020 30.12 849 25.07 8.9 48 71 4 39.2
01:20 1020 30.12 849 25.07 8.9 48 71 3.9 39.1
01:25 1020 30.12 849 25.07 8.9 48.1 71 3.9 39.1
01:30 1020 30.12 849 25.07 8.9 48 71 3.9 39.1
01:35 1020 30.12 849 25.07 8.9 47.9 71 3.9 39.1
01:40 1020 30.12 849 25.07 8.9 48 71 4 39.2
01:45 1020 30.12 849 25.07 8.9 47.9 71 3.9 39.1
01:50 1020 30.12 849 25.07 8.9 48 72 4 39.3
01:55 1020 30.12 849 25.07 8.9 47.9 72 4 39.2
02:00 1020 30.12 849 25.07 8.9 47.9 71 3.9 39
02:05 1020 30.12 849 25.07 8.9 47.9 71 3.9 39.1
02:10 1020 30.12 849 25.07 8.8 47.9 71 3.8 38.8
02:15 1020 30.12 849 25.07 8.9 47.9 71 3.8 38.9
02:20 1020 30.12 849 25.07 8.9 48 70 3.8 38.8
02:25 1020 30.12 849 25.07 8.8 47.9 70 3.8 38.8
02:30 1020 30.12 849 25.07 8.9 47.9 70 3.7 38.7
02:35 1020 30.12 849 25.07 8.9 48 70 3.8 38.8
02:40 1020 30.12 849 25.07 8.9 48 70 3.8 38.8
02:45 1020 30.12 849 25.07 8.9 48 70 3.7 38.7
02:50 1020 30.12 849 25.07 8.8 47.9 70 3.7 38.7
02:55 1020 30.12 849 25.07 8.8 47.8 71 3.8 38.8
03:00 1020 30.12 849 25.07 8.8 47.8 71 3.8 38.8
03:05 1020 30.12 849 25.07 8.8 47.8 70 3.7 38.7
03:10 1020 30.12 849 25.07 8.8 47.9 70 3.6 38.5
03:15 1020 30.12 849 25.07 8.8 47.8 70 3.6 38.5
03:20 1020 30.12 849 25.07 8.9 48 69 3.5 38.3
03:25 1020 30.12 849 25.07 9 48.1 69 3.6 38.4
03:30 1020 30.12 849 25.07 8.9 48 69 3.6 38.5
03:35 1020 30.12 849 25.07 8.9 47.9 69 3.6 38.4
03:40 1019 30.09 849 25.07 8.9 48.1 69 3.6 38.5
03:45 1019 30.09 849 25.07 9 48.1 69 3.7 38.6
03:50 1019 30.09 849 25.07 9 48.1 69 3.6 38.5
03:55 1019 30.09 848 25.04 8.9 48 69 3.5 38.3
04:00 1019 30.09 848 25.04 8.8 47.8 68 3.3 38
04:05 1019 30.09 848 25.04 8.8 47.8 68 3.3 37.9
04:10 1019 30.09 848 25.04 8.8 47.8 68 3.1 37.7
04:15 1019 30.09 848 25.04 8.8 47.8 67 3 37.4
04:20 1019 30.09 848 25.04 8.8 47.8 67 3 37.5
04:25 1019 30.09 848 25.04 8.8 47.9 66 2.8 37.1
04:30 1019 30.09 848 25.04 8.8 47.9 66 2.8 37.1
04:35 1019 30.09 848 25.04 8.9 48 64 2.6 36.6
04:40 1019 30.09 848 25.04 9 48.2 63 2.4 36.3
04:45 1019 30.09 848 25.04 9.2 48.5 61 2.2 35.9
04:50 1019 30.09 848 25.04 9.2 48.6 60 2 35.6
04:55 1019 30.09 848 25.04 9.2 48.6 62 2.3 36.1
05:00 1019 30.09 848 25.04 9.1 48.5 59 1.6 34.9
05:05 1019 30.09 848 25.04 9.2 48.6 58 1.4 34.5
05:10 1019 30.09 848 25.04 9.2 48.6 58 1.5 34.7
05:15 1019 30.09 848 25.04 9.1 48.4 58 1.4 34.5
05:20 1019 30.09 848 25.04 9.1 48.3 58 1.2 34.2
05:25 1019 30.09 848 25.04 9 48.3 57 1 33.8
05:30 1019 30.09 848 25.04 9 48.2 56 0.7 33.3
05:35 1019 30.09 848 25.04 8.9 48 56 0.6 33.1
05:40 1019 30.09 848 25.04 8.9 47.9 55 0.3 32.5
05:45 1019 30.09 848 25.04 8.9 48 55 0.3 32.6
05:50 1019 30.09 848 25.04 8.9 48 54 0.2 32.4
05:55 1019 30.09 848 25.04 9 48.1 54 0.2 32.3
06:00 1019 30.09 848 25.04 9.1 48.3 53 0.1 32.2
06:05 1019 30.09 848 25.04 9.1 48.4 53 0.1 32.2
06:10 1019 30.09 848 25.04 9.1 48.5 53 0.2 32.3
06:15 1019 30.09 848 25.04 9.2 48.5 53 0.1 32.1
06:20 1019 30.09 848 25.04 9.1 48.4 53 0.1 32.1
06:25 1019 30.09 848 25.04 9.1 48.4 52 -0.1 31.9
06:30 1019 30.09 848 25.04 9.2 48.5 52 -0.1 31.9
06:35 1019 30.09 848 25.04 9.4 48.9 51 -0.1 31.8
06:40 1019 30.09 848 25.04 9.6 49.3 52 0.2 32.3
06:45 1019 30.09 848 25.04 9.6 49.2 51 -0.1 31.8
06:50 1019 30.09 848 25.04 9.7 49.4 51 -0.1 31.9
06:55 1019 30.09 848 25.04 9.7 49.5 51 0 32.1
07:00 1019 30.09 848 25.04 9.7 49.4 53 0.5 33
07:05 1019 30.09 848 25.04 9.7 49.5 52 0.5 32.8
07:10 1019 30.09 848 25.04 9.8 49.6 52 0.5 32.8
07:15 1019 30.09 848 25.04 9.9 49.9 51 0.3 32.5
07:20 1019 30.09 848 25.04 10 50 50 0.1 32.1
07:25 1019 30.09 848 25.04 10.1 50.1 50 0.1 32.3
07:30 1019 30.09 848 25.04 10.2 50.4 50 0.2 32.4
07:35 1019 30.09 848 25.04 10.1 50.1 51 0.4 32.7
07:40 1019 30.09 848 25.04 10.1 50.1 51 0.5 32.9
07:45 1019 30.09 848 25.04 10.1 50.1 51 0.5 32.9
07:50 1019 30.09 848 25.04 10.1 50.1 51 0.3 32.6
07:55 1019 30.09 848 25.04 10.5 50.8 50 0.6 33
08:00 1019 30.09 848 25.04 10.7 51.2 49 0.5 32.9
08:05 1019 30.09 848 25.04 10.7 51.3 49 0.6 33.1
08:10 1019 30.09 848 25.04 10.4 50.7 50 0.5 32.9
08:15 1019 30.09 848 25.04 10.1 50.3 51 0.4 32.7
08:20 1019 30.09 848 25.04 10.6 51.1 50 0.5 32.9
08:25 1019 30.09 848 25.04 10.6 51 50 0.5 32.9
08:30 1019 30.09 848 25.04 10.8 51.4 48 0.3 32.5
08:35 1019 30.09 848 25.04 11 51.8 48 0.6 33.1
08:40 1019 30.09 848 25.04 11.1 51.9 49 0.8 33.4
08:45 1019 30.09 848 25.04 11.3 52.3 48 0.6 33.2
08:50 1019 30.09 848 25.04 11.4 52.5 47 0.5 32.9
08:55 1019 30.09 848 25.04 11.3 52.3 48 0.8 33.4
09:00 1019 30.09 848 25.04 11.2 52.1 48 0.6 33
09:05 1019 30.09 848 25.04 11.2 52.2 49 0.8 33.5
09:10 1019 30.09 848 25.04 11.7 53.1 47 0.9 33.6
09:15 1019 30.09 848 25.04 11.5 52.7 47 0.8 33.4
09:20 1019 30.09 848 25.04 12 53.7 46 1 33.8
09:25 1019 30.09 848 25.04 12 53.5 48 1.3 34.3
09:30 1019 30.09 848 25.04 12.5 54.5 45 0.9 33.7
09:35 1019 30.09 848 25.04 12.9 55.1 47 1.8 35.2
09:40 1019 30.09 848 25.04 12.7 54.9 46 1.5 34.6
09:45 1019 30.09 848 25.04 12.8 55.1 46 1.4 34.6
09:50 1019 30.09 848 25.04 13.1 55.6 46 1.7 35.1
09:55 1019 30.09 848 25.04 13.3 55.9 45 1.6 34.8
10:00 1018 30.06 848 25.04 12.9 55.2 45 1.3 34.4
10:05 1018 30.06 848 25.04 13.3 55.9 45 1.6 34.8
10:10 1018 30.06 847 25.01 13.2 55.7 44 1.2 34.1
10:15 1018 30.06 847 25.01 13.4 56.1 45 1.8 35.2
10:20 1018 30.06 847 25.01 13.5 56.3 44 1.7 35
10:25 1018 30.06 847 25.01 13.7 56.7 44 1.8 35.2
10:30 1018 30.06 847 25.01 13.7 56.6 45 2 35.6
10:35 1018 30.06 847 25.01 13.6 56.4 46 2.1 35.8
10:40 1018 30.06 847 25.01 13.9 57.1 45 2.3 36.2
10:45 1018 30.06 847 25.01 13.7 56.6 46 2.5 36.5
10:50 1017 30.03 847 25.01 13.9 57 46 2.4 36.3
10:55 1017 30.03 847 25.01 14.2 57.6 45 2.5 36.4
11:00 1017 30.03 846 24.98 14.8 58.6 44 2.7 36.9
11:05 1017 30.03 846 24.98 14.6 58.3 44 2.7 36.9
11:10 1017 30.03 846 24.98 14.5 58.1 45 2.9 37.2
11:15 1017 30.03 846 24.98 15.1 59.2 43 2.9 37.1
11:20 1017 30.03 846 24.98 15.1 59.2 44 3 37.3
11:25 1017 30.03 846 24.98 15.3 59.6 44 3.1 37.7
11:30 1017 30.03 846 24.98 14.9 58.9 44 2.7 36.9
11:35 1017 30.03 846 24.98 15.1 59.3 44 2.9 37.3
11:40 1017 30.03 846 24.98 15.5 59.9 43 3.2 37.7
11:45 1017 30.03 846 24.98 15.7 60.3 43 3.1 37.7
11:50 1016 30 846 24.98 15.5 60 42 2.9 37.3
11:55 1016 30 846 24.98 15.4 59.8 42 2.6 36.7
12:00 1016 30 846 24.98 15.5 59.8 42 2.7 36.8
12:05 1016 30 846 24.98 15.4 59.7 42 2.7 36.8
12:10 1016 30 846 24.98 15.6 60 41 2.5 36.5
12:15 1016 30 845 24.95 15.7 60.2 41 2.6 36.6
12:20 1016 30 845 24.95 15.7 60.3 41 2.5 36.5
12:25 1016 30 845 24.95 15.7 60.3 40 2.4 36.3
12:30 1016 30 845 24.95 15.9 60.6 40 2.5 36.4
12:35 1016 30 845 24.95 15.8 60.5 40 2.5 36.5
12:40 1016 30 845 24.95 16.5 61.7 39 2.5 36.5
12:45 1016 30 845 24.95 16.4 61.4 39 2.6 36.7
12:50 1016 30 845 24.95 16.6 61.8 39 2.6 36.6
12:55 1016 30 845 24.95 16.8 62.2 39 2.9 37.2
13:00 1016 30 845 24.95 16.5 61.7 39 2.7 36.9
13:05 1016 30 845 24.95 16.5 61.7 39 2.7 36.9
13:10 1016 30 845 24.95 16.6 61.8 39 2.7 36.8
13:15 1016 30 845 24.95 16.8 62.3 39 3 37.4
13:20 1016 30 845 24.95 16.8 62.2 39 2.7 36.9
13:25 1016 30 845 24.95 17 62.5 39 3.1 37.6
13:30 1016 30 845 24.95 17 62.6 38 2.8 37.1
13:35 1016 30 845 24.95 17 62.5 38 2.7 36.9
13:40 1015 29.97 845 24.95 17.4 63.2 37 2.8 37
13:45 1015 29.97 845 24.95 17.3 63.1 38 2.8 37
13:50 1015 29.97 845 24.95 17.5 63.5 37 2.8 37.1
13:55 1015 29.97 845 24.95 17.3 63.2 38 2.9 37.3
14:00 1015 29.97 845 24.95 17.6 63.7 36 2.7 36.8
14:05 1015 29.97 844 24.92 17.4 63.3 37 2.8 37.1
14:10 1015 29.97 844 24.92 17.6 63.7 37 3 37.3
14:15 1015 29.97 844 24.92 17.9 64.2 35 2.5 36.5
14:20 1015 29.97 844 24.92 17.8 64 36 2.8 37
14:25 1015 29.97 844 24.92 17.4 63.3 37 2.5 36.5
14:30 1015 29.97 844 24.92 17.5 63.4 37 2.8 37
14:35 1015 29.97 844 24.92 17.7 63.9 38 3.3 37.9
14:40 1015 29.97 844 24.92 17.6 63.6 38 3.1 37.6
14:45 1015 29.97 844 24.92 17.7 63.9 37 2.8 37
14:50 1015 29.97 844 24.92 17.7 63.8 37 3 37.4
14:55 1015 29.97 844 24.92 17.9 64.2 35 2.3 36.1
15:00 1015 29.97 844 24.92 17.9 64.2 36 2.8 37.1
15:05 1014 29.94 844 24.92 17.8 64 36 2.7 36.9
15:10 1014 29.94 844 24.92 17.9 64.2 36 2.8 37
15:15 1014 29.94 844 24.92 17.9 64.3 36 2.9 37.2
15:20 1014 29.94 844 24.92 18.1 64.5 35 2.7 36.8
15:25 1014 29.94 844 24.92 18.1 64.6 35 2.7 36.8
15:30 1014 29.94 844 24.92 18.3 65 34 2.4 36.4
15:35 1014 29.94 844 24.92 18.3 65 35 2.9 37.2
15:40 1014 29.94 844 24.92 18.1 64.6 35 2.7 36.9
15:45 1014 29.94 844 24.92 18.2 64.8 35 2.6 36.7
15:50 1014 29.94 844 24.92 18.4 65 36 3.1 37.6
15:55 1014 29.94 843 24.89 18.2 64.7 37 3.3 37.9
16:00 1014 29.94 843 24.89 18.2 64.7 36 3 37.5
16:05 1014 29.94 843 24.89 17.8 64.1 36 2.6 36.7
16:10 1014 29.94 843 24.89 17.9 64.2 35 2.4 36.2
16:15 1014 29.94 843 24.89 17.9 64.1 38 3.3 37.9
16:20 1014 29.94 843 24.89 17.5 63.5 37 2.9 37.3
16:25 1014 29.94 843 24.89 17 62.6 39 3.1 37.5
16:30 1014 29.94 843 24.89 17 62.5 39 3.1 37.6
16:35 1014 29.94 844 24.92 16.9 62.5 38 2.6 36.6
16:40 1014 29.94 843 24.89 17.2 63 37 2.7 36.8
16:45 1014 29.94 843 24.89 17.3 63.1 38 2.8 37.1
16:50 1014 29.94 843 24.89 17.3 63.2 37 2.7 36.8
16:55 1014 29.94 843 24.89 17.3 63.1 37 2.6 36.6
17:00 1014 29.94 843 24.89 17.5 63.5 37 2.8 37
17:05 1014 29.94 843 24.89 17.5 63.4 38 3 37.4
17:10 1014 29.94 843 24.89 17.7 63.8 37 3 37.5
17:15 1014 29.94 843 24.89 17.7 63.8 37 2.8 37
17:20 1013 29.91 843 24.89 17.3 63.1 38 2.8 37
17:25 1013 29.91 842 24.86 17.2 62.9 38 3 37.3
17:30 1013 29.91 842 24.86 17.4 63.2 35 2 35.6
17:35 1013 29.91 842 24.86 17.2 62.9 37 2.4 36.3
17:40 1013 29.91 842 24.86 16.9 62.4 38 2.5 36.5
17:45 1013 29.91 842 24.86 16.8 62.3 38 2.7 36.8
17:50 1013 29.91 842 24.86 16.7 62 39 2.8 37.1
17:55 1013 29.91 842 24.86 16.7 62 38 2.3 36.2
18:00 1013 29.91 842 24.86 16.5 61.7 38 2.2 36
18:05 1013 29.91 842 24.86 16.4 61.5 39 2.4 36.3
18:10 1013 29.91 842 24.86 16.3 61.4 39 2.3 36.2
18:15 1013 29.91 842 24.86 16.3 61.3 38 2.2 35.9
18:20 1013 29.91 842 24.86 16.4 61.5 38 2.3 36.2
18:25 1013 29.91 842 24.86 16.2 61.2 39 2.3 36.2
18:30 1013 29.91 842 24.86 16.1 61 39 2.2 36
18:35 1013 29.91 843 24.89 16.1 61 38 1.9 35.5
18:40 1013 29.91 842 24.86 16 60.8 38 1.8 35.2
18:45 1013 29.91 842 24.86 15.9 60.5 39 1.9 35.5
18:50 1013 29.91 843 24.89 15.7 60.3 40 2.2 35.9
18:55 1013 29.91 843 24.89 15.6 60.1 41 2.3 36.2
19:00 1013 29.91 842 24.86 15.5 59.9 41 2.3 36.2
19:05 1013 29.91 842 24.86 15.4 59.8 41 2.5 36.5
19:10 1013 29.91 843 24.89 15.3 59.6 42 2.5 36.4
19:15 1013 29.91 843 24.89 15.2 59.4 42 2.5 36.5
19:20 1013 29.91 843 24.89 15.1 59.3 43 2.7 36.9
19:25 1013 29.91 843 24.89 15 59 43 2.7 36.9
19:30 1013 29.91 843 24.89 14.9 58.8 43 2.6 36.7
19:35 1013 29.91 843 24.89 14.8 58.6 44 2.7 36.9
19:40 1013 29.91 843 24.89 14.6 58.3 44 2.6 36.7
19:45 1013 29.91 843 24.89 14.5 58.1 44 2.6 36.7
19:50 1013 29.91 843 24.89 14.3 57.8 45 2.7 36.9
19:55 1013 29.91 843 24.89 14.3 57.7 46 2.8 37
20:00 1013 29.91 843 24.89 14.1 57.4 46 2.8 37
20:05 1013 29.91 843 24.89 14.1 57.3 46 2.7 36.8
20:10 1013 29.91 843 24.89 14 57.1 46 2.5 36.6
20:15 1013 29.91 843 24.89 13.9 57 46 2.5 36.5
20:20 1014 29.94 843 24.89 13.8 56.8 46 2.4 36.3
20:25 1014 29.94 843 24.89 13.7 56.6 45 2.1 35.8
20:30 1014 29.94 843 24.89 13.7 56.6 45 2.1 35.7
20:35 1014 29.94 843 24.89 13.6 56.4 45 1.9 35.4
20:40 1014 29.94 843 24.89 13.6 56.4 44 1.7 35
20:45 1014 29.94 843 24.89 13.6 56.4 45 1.8 35.2
20:50 1014 29.94 843 24.89 13.5 56.2 45 1.7 35.1
20:55 1014 29.94 843 24.89 13.4 56.1 45 1.7 35.1
21:00 1014 29.94 843 24.89 13.3 55.9 45 1.7 35
21:05 1013 29.91 843 24.89 13.2 55.8 46 1.8 35.3
21:10 1013 29.91 843 24.89 13.2 55.7 46 1.8 35.2
21:15 1014 29.94 843 24.89 13.1 55.6 46 1.8 35.2
21:20 1014 29.94 843 24.89 13.1 55.5 46 1.9 35.4
21:25 1014 29.94 843 24.89 13 55.4 47 2 35.6
21:30 1013 29.91 843 24.89 13 55.3 47 2 35.5
21:35 1013 29.91 843 24.89 13 55.3 47 2.1 35.7
21:40 1013 29.91 843 24.89 12.9 55.2 48 2.1 35.8
21:45 1013 29.91 842 24.86 12.8 55 48 2.1 35.9
21:50 1013 29.91 842 24.86 12.7 54.9 48 2.2 35.9
21:55 1013 29.91 842 24.86 12.7 54.9 49 2.3 36.1
22:00 1013 29.91 842 24.86 12.7 54.9 49 2.3 36.2
22:05 1013 29.91 842 24.86 12.7 54.8 49 2.4 36.3
22:10 1013 29.91 842 24.86 12.6 54.8 50 2.6 36.6
22:15 1013 29.91 842 24.86 12.5 54.5 51 2.7 36.8
22:20 1013 29.91 842 24.86 12.4 54.4 51 2.7 36.8
22:25 1013 29.91 842 24.86 12.4 54.2 52 2.7 36.9
22:30 1013 29.91 842 24.86 12.2 53.9 52 2.7 36.9
22:35 1013 29.91 842 24.86 12.1 53.7 52 2.7 36.9
22:40 1013 29.91 842 24.86 12.1 53.8 53 2.8 37
22:45 1013 29.91 842 24.86 12.1 53.7 53 2.7 36.9
22:50 1013 29.91 842 24.86 12.1 53.8 52 2.5 36.5
22:55 1013 29.91 842 24.86 12.1 53.7 52 2.6 36.7
23:00 1013 29.91 842 24.86 11.9 53.4 53 2.6 36.7
23:05 1013 29.91 842 24.86 11.9 53.4 52 2.5 36.5
23:10 1012 29.88 842 24.86 11.8 53.3 53 2.6 36.7
23:15 1012 29.88 842 24.86 11.8 53.2 52 2.4 36.3
23:20 1012 29.88 841 24.83 11.8 53.2 52 2.3 36.1
23:25 1012 29.88 841 24.83 11.7 53.1 52 2.3 36.2
23:30 1012 29.88 841 24.83 11.5 52.7 53 2.4 36.3
23:35 1012 29.88 841 24.83 11.4 52.5 54 2.4 36.4
23:40 1012 29.88 841 24.83 11.4 52.5 53 2.3 36.1
23:45 1012 29.88 841 24.83 11.4 52.5 53 2.2 36
23:50 1012 29.88 841 24.83 11.4 52.6 52 2.1 35.7
23:55 1012 29.88 841 24.83 11.4 52.5 53 2.1 35.8
24:00 1012 29.88 841 24.83 11.3 52.3 53 2 35.6